createdAt,value
2023-10-20T00:03:24.024Z,13.63
2023-10-20T00:07:28.247Z,15.00
2023-10-20T00:11:31.618Z,13.25
2023-10-20T00:15:36.050Z,15.23
2023-10-20T00:19:40.605Z,14.18
2023-10-20T00:23:43.892Z,14.80
2023-10-20T00:27:47.539Z,15.45
2023-10-20T00:31:50.911Z,13.35
2023-10-20T00:35:55.418Z,14.95
2023-10-20T00:39:58.691Z,15.90
2023-10-20T00:44:01.622Z,14.35
2023-10-20T00:48:05.514Z,15.25
2023-10-20T00:52:11.070Z,14.43
2023-10-20T00:56:14.534Z,15.23
2023-10-20T01:00:18.111Z,15.55
2023-10-20T01:04:21.874Z,16.23
2023-10-20T01:08:26.457Z,14.32
2023-10-20T01:12:29.804Z,16.25
2023-10-20T01:16:33.284Z,16.23
2023-10-20T01:20:38.068Z,13.68
2023-10-20T01:24:42.751Z,14.63
2023-10-20T01:28:46.074Z,14.07
2023-10-20T01:32:49.158Z,15.73
2023-10-20T01:36:52.680Z,14.18
2023-10-20T01:40:57.002Z,14.02
2023-10-20T01:45:00.257Z,15.40
2023-10-20T01:49:03.215Z,14.00
2023-10-20T01:53:06.905Z,15.43
2023-10-20T01:57:11.470Z,13.85
2023-10-20T02:01:14.475Z,15.88
2023-10-20T02:05:17.671Z,17.35
2023-10-20T02:09:21.019Z,16.83
2023-10-20T02:13:25.896Z,14.80
2023-10-20T02:17:29.307Z,16.52
2023-10-20T02:21:32.440Z,14.75
2023-10-20T02:25:36.114Z,15.45
2023-10-20T02:29:41.697Z,16.70
2023-10-20T02:33:44.983Z,16.20
2023-10-20T02:37:48.423Z,14.68
2023-10-20T02:41:51.782Z,17.88
2023-10-20T02:45:56.855Z,13.93
2023-10-20T02:50:00.359Z,18.08
2023-10-20T02:54:03.912Z,17.00
2023-10-20T02:58:07.351Z,16.42
2023-10-20T03:02:11.723Z,16.08
2023-10-20T03:06:15.476Z,18.33
2023-10-20T03:10:18.450Z,22.60
2023-10-20T03:14:22.424Z,19.88
2023-10-20T03:18:26.980Z,19.58
2023-10-20T03:22:30.801Z,23.60
2023-10-20T03:26:34.138Z,28.30
2023-10-20T03:30:41.053Z,24.13
2023-10-20T03:34:45.427Z,20.08
2023-10-20T03:38:51.310Z,29.95
2023-10-20T03:42:54.224Z,22.67
2023-10-20T03:46:59.194Z,27.27
2023-10-20T03:51:06.495Z,26.63
2023-10-20T03:55:10.440Z,26.52
2023-10-20T03:59:14.807Z,26.33
2023-10-20T04:03:18.331Z,29.42
2023-10-20T04:07:22.629Z,26.48
2023-10-20T04:11:25.930Z,26.85
2023-10-20T04:15:33.769Z,26.60
2023-10-20T04:19:37.105Z,30.38
2023-10-20T04:23:41.752Z,28.20
2023-10-20T04:27:50.798Z,32.45
2023-10-20T04:32:07.683Z,33.03
2023-10-20T04:36:28.467Z,25.27
2023-10-20T04:40:52.096Z,30.63
2023-10-20T04:45:21.204Z,26.83
2023-10-20T04:49:41.643Z,30.23
2023-10-20T04:53:54.078Z,30.38
2023-10-20T04:58:05.459Z,24.02
2023-10-20T05:02:14.998Z,25.15
2023-10-20T05:06:28.588Z,25.85
2023-10-20T05:10:31.846Z,25.55
2023-10-20T05:14:36.518Z,25.23
2023-10-20T05:18:40.102Z,24.73
2023-10-20T05:22:43.087Z,23.77
2023-10-20T05:26:47.713Z,25.30
2023-10-20T05:30:52.395Z,24.45
2023-10-20T05:34:56.188Z,27.77
2023-10-20T05:38:59.153Z,24.27
2023-10-20T05:43:04.745Z,27.65
2023-10-20T05:47:09.535Z,26.00
2023-10-20T05:51:13.673Z,28.38
2023-10-20T05:55:16.954Z,31.90
2023-10-20T05:59:20.255Z,28.65
2023-10-20T06:03:26.026Z,27.65
2023-10-20T06:07:30.000Z,28.27
2023-10-20T06:11:33.090Z,28.10
2023-10-20T06:15:38.360Z,30.17
2023-10-20T06:19:43.100Z,24.80
2023-10-20T06:23:47.604Z,25.48
2023-10-20T06:27:50.592Z,24.90
2023-10-20T06:31:59.379Z,27.30
2023-10-20T06:36:11.634Z,26.73
2023-10-20T06:40:18.010Z,28.15
2023-10-20T06:44:21.062Z,27.58
2023-10-20T06:48:24.571Z,29.00
2023-10-20T06:52:28.909Z,25.88
2023-10-20T06:56:32.182Z,25.17
2023-10-20T07:00:37.332Z,28.67
2023-10-20T07:04:42.749Z,24.10
2023-10-20T07:08:47.353Z,25.35
2023-10-20T07:12:50.702Z,27.42
2023-10-20T07:16:53.835Z,31.27
2023-10-20T07:20:58.949Z,28.08
2023-10-20T07:25:04.837Z,25.40
2023-10-20T07:29:08.392Z,23.95
2023-10-20T07:33:12.152Z,28.98
2023-10-20T07:37:16.506Z,28.60
2023-10-20T07:41:20.841Z,24.55
2023-10-20T07:45:24.334Z,24.30
2023-10-20T07:49:27.339Z,25.88
2023-10-20T07:53:31.011Z,20.38
2023-10-20T07:57:36.501Z,21.20
2023-10-20T08:01:39.874Z,26.90
2023-10-20T08:05:43.103Z,24.75
2023-10-20T08:09:46.637Z,21.52
2023-10-20T08:13:52.703Z,22.77
2023-10-20T08:17:56.509Z,22.10
2023-10-20T08:22:00.469Z,23.02
2023-10-20T08:26:03.979Z,22.08
2023-10-20T08:30:09.481Z,26.17
2023-10-20T08:34:12.711Z,23.65
2023-10-20T08:38:15.655Z,24.42
2023-10-20T08:42:19.290Z,20.73
2023-10-20T08:46:24.827Z,18.85
2023-10-20T08:50:30.962Z,20.17
2023-10-20T08:54:34.698Z,19.15
2023-10-20T08:58:38.944Z,7.65
2023-10-20T09:02:44.238Z,4.20
2023-10-20T09:06:47.784Z,6.25
2023-10-20T09:10:51.908Z,4.00
2023-10-20T09:14:57.953Z,3.50
2023-10-20T09:19:02.518Z,5.95
2023-10-20T09:23:13.383Z,6.38
2023-10-20T09:27:16.955Z,4.32
2023-10-20T09:31:21.484Z,6.53
2023-10-20T09:35:26.994Z,5.28
2023-10-20T09:39:40.808Z,5.28
2023-10-20T09:43:49.467Z,6.82
2023-10-20T09:47:59.374Z,5.13
2023-10-20T09:52:06.245Z,6.50
2023-10-20T09:56:10.286Z,5.07
2023-10-20T10:00:14.421Z,4.53
2023-10-20T10:04:26.457Z,7.22
2023-10-20T10:08:32.623Z,4.60
2023-10-20T10:12:35.926Z,4.40
2023-10-20T10:16:49.916Z,4.53
2023-10-20T10:20:53.627Z,3.30
2023-10-20T10:24:59.310Z,8.77
2023-10-20T10:29:02.622Z,5.68
2023-10-20T10:33:07.621Z,4.32
2023-10-20T10:37:11.216Z,4.10
2023-10-20T10:41:15.696Z,4.85
2023-10-20T10:45:21.413Z,4.82
2023-10-20T10:49:24.432Z,3.92
2023-10-20T10:53:28.814Z,3.03
2023-10-20T10:57:34.388Z,3.30
2023-10-20T11:01:39.836Z,6.55
2023-10-20T11:05:43.107Z,7.70
2023-10-20T11:09:46.498Z,3.03
2023-10-20T11:13:50.812Z,3.30
2023-10-20T11:17:54.272Z,1.77
2023-10-20T11:21:57.866Z,5.40
2023-10-20T11:26:01.174Z,3.72
2023-10-20T11:30:08.736Z,5.43
2023-10-20T11:34:12.084Z,3.83
2023-10-20T11:38:17.261Z,5.30
2023-10-20T11:42:21.370Z,6.85
2023-10-20T11:46:25.709Z,4.28
2023-10-20T11:50:29.765Z,4.53
2023-10-20T11:54:33.824Z,7.60
2023-10-20T11:58:37.268Z,2.67
2023-10-20T12:02:42.090Z,3.38
2023-10-20T12:06:45.645Z,4.53
2023-10-20T12:10:48.864Z,4.07
2023-10-20T12:14:52.253Z,3.20
2023-10-20T12:18:56.645Z,3.75
2023-10-20T12:23:01.282Z,4.07
2023-10-20T12:27:04.805Z,3.35
2023-10-20T12:31:08.260Z,3.28
2023-10-20T12:35:13.303Z,5.45
2023-10-20T12:39:19.700Z,4.88
2023-10-20T12:43:23.002Z,6.47
2023-10-20T12:47:26.368Z,7.05
2023-10-20T12:51:30.940Z,6.47
2023-10-20T12:55:34.277Z,5.85
2023-10-20T12:59:37.275Z,3.42
2023-10-20T13:03:40.640Z,4.43
2023-10-20T13:07:45.320Z,5.35
2023-10-20T13:11:48.594Z,6.65
2023-10-20T13:15:52.121Z,5.55
2023-10-20T13:19:55.392Z,4.53
2023-10-20T13:23:59.752Z,7.10
2023-10-20T13:28:05.681Z,3.17
2023-10-20T13:32:08.623Z,6.05
2023-10-20T13:36:12.292Z,6.82
2023-10-20T13:40:17.052Z,5.40
2023-10-20T13:44:20.349Z,7.28
2023-10-20T13:48:23.416Z,7.30
2023-10-20T13:52:26.787Z,10.07
2023-10-20T13:56:31.727Z,4.50
2023-10-20T14:00:37.174Z,4.80
2023-10-20T14:04:40.444Z,5.88
2023-10-20T14:08:44.027Z,6.25
2023-10-20T14:12:48.425Z,7.30
2023-10-20T14:16:54.234Z,9.27
2023-10-20T14:20:57.197Z,4.90
2023-10-20T14:25:00.588Z,4.88
2023-10-20T14:29:05.503Z,6.65
2023-10-20T14:33:08.932Z,6.35
2023-10-20T14:37:11.941Z,6.70
2023-10-20T14:41:15.214Z,6.57
2023-10-20T14:45:19.694Z,7.10
2023-10-20T14:49:22.999Z,4.85
2023-10-20T14:53:26.293Z,7.32
2023-10-20T14:57:29.680Z,6.68
2023-10-20T15:01:34.891Z,8.68
2023-10-20T15:05:39.954Z,4.82
2023-10-20T15:09:43.068Z,8.45
2023-10-20T15:13:46.503Z,9.68
2023-10-20T15:17:50.933Z,8.90
2023-10-20T15:21:54.610Z,5.88
2023-10-20T15:25:57.627Z,4.80
2023-10-20T15:30:00.981Z,4.93
2023-10-20T15:34:05.340Z,5.43
2023-10-20T15:38:11.807Z,5.05
2023-10-20T15:42:15.164Z,10.32
2023-10-20T15:46:18.649Z,6.80
2023-10-20T15:50:23.124Z,4.50
2023-10-20T15:54:26.700Z,12.43
2023-10-20T15:58:30.058Z,7.35
2023-10-20T16:02:33.634Z,6.43
2023-10-20T16:06:37.968Z,5.70
2023-10-20T16:10:41.321Z,7.82
2023-10-20T16:14:44.918Z,3.92
2023-10-20T16:18:48.305Z,6.63
2023-10-20T16:22:52.885Z,8.05
2023-10-20T16:26:56.200Z,6.32
2023-10-20T16:31:01.280Z,4.47
2023-10-20T16:35:05.581Z,9.32
2023-10-20T16:39:12.138Z,9.23
2023-10-20T16:43:15.505Z,5.60
2023-10-20T16:47:18.475Z,7.07
2023-10-20T16:51:21.981Z,8.10
2023-10-20T16:55:26.311Z,10.25
2023-10-20T16:59:29.636Z,6.43
2023-10-20T17:03:32.891Z,10.50
2023-10-20T17:07:36.328Z,4.38
2023-10-20T17:11:40.627Z,8.90
2023-10-20T17:15:43.908Z,8.27
2023-10-20T17:19:46.963Z,10.43
2023-10-20T17:23:50.269Z,7.22
2023-10-20T17:27:54.550Z,8.50
2023-10-20T17:31:57.840Z,6.28
2023-10-20T17:36:05.155Z,7.95
2023-10-20T17:40:13.434Z,8.95
2023-10-20T17:44:18.137Z,8.07
2023-10-20T17:48:21.454Z,7.38
2023-10-20T17:52:24.724Z,4.85
2023-10-20T17:56:28.475Z,7.68
2023-10-20T18:00:35.391Z,4.53
2023-10-20T18:04:38.799Z,6.03
2023-10-20T18:08:42.238Z,10.57
2023-10-20T18:12:45.645Z,9.70
2023-10-20T18:16:51.838Z,9.48
2023-10-20T18:20:56.449Z,8.15
2023-10-20T18:24:59.499Z,11.40
2023-10-20T18:29:03.089Z,8.63
2023-10-20T18:33:07.555Z,10.07
2023-10-20T18:37:11.111Z,8.48
2023-10-20T18:41:17.919Z,6.60
2023-10-20T18:45:21.215Z,6.43
2023-10-20T18:49:25.524Z,5.90
2023-10-20T18:53:28.812Z,7.05
2023-10-20T18:57:31.800Z,7.40
2023-10-20T19:01:35.216Z,8.88
2023-10-20T19:05:40.223Z,9.90
2023-10-20T19:09:44.002Z,5.63
2023-10-20T19:13:47.119Z,6.97
2023-10-20T19:17:50.447Z,8.13
2023-10-20T19:21:54.836Z,6.47
2023-10-20T19:26:02.249Z,9.27
2023-10-20T19:30:06.407Z,6.10
2023-10-20T19:34:09.924Z,11.90
2023-10-20T19:38:14.249Z,6.00
2023-10-20T19:42:18.244Z,6.10
2023-10-20T19:46:21.639Z,10.45
2023-10-20T19:50:25.650Z,6.35
2023-10-20T19:54:30.404Z,7.10
2023-10-20T19:58:33.770Z,7.68
2023-10-20T20:02:37.039Z,8.85
2023-10-20T20:06:40.847Z,9.48
2023-10-20T20:10:45.593Z,5.82
2023-10-20T20:14:48.983Z,11.13
2023-10-20T20:18:52.033Z,8.13
2023-10-20T20:22:55.564Z,9.27
2023-10-20T20:27:01.934Z,9.20
2023-10-20T20:31:06.043Z,9.70
2023-10-20T20:35:10.038Z,8.82
2023-10-20T20:39:13.587Z,9.65
2023-10-20T20:43:18.146Z,10.55
2023-10-20T20:47:21.780Z,7.65
2023-10-20T20:51:24.773Z,9.10
2023-10-20T20:55:28.090Z,5.38
2023-10-20T20:59:32.396Z,8.68
2023-10-20T21:03:35.857Z,9.05
2023-10-20T21:07:38.968Z,7.75
2023-10-20T21:11:42.333Z,13.60
2023-10-20T21:15:47.087Z,6.35
2023-10-20T21:19:50.272Z,8.20
2023-10-20T21:23:53.265Z,7.95
2023-10-20T21:27:56.555Z,6.32
2023-10-20T21:32:00.843Z,8.15
2023-10-20T21:36:04.501Z,9.90
2023-10-20T21:40:08.720Z,6.68
2023-10-20T21:44:12.045Z,6.65
2023-10-20T21:48:16.487Z,8.05
2023-10-20T21:52:20.033Z,10.13
2023-10-20T21:56:22.974Z,4.47
2023-10-20T22:04:55.067Z,10.88
2023-10-20T22:08:58.357Z,6.88
2023-10-20T22:13:01.372Z,5.50
2023-10-20T22:17:06.618Z,6.47
2023-10-20T22:21:11.022Z,6.50
2023-10-20T22:25:15.056Z,8.68
2023-10-20T22:29:18.682Z,7.22
2023-10-20T22:33:22.183Z,12.98
2023-10-20T22:37:26.567Z,11.05
2023-10-20T22:41:29.859Z,11.93
2023-10-20T22:45:32.793Z,7.10
2023-10-20T22:49:36.245Z,13.85
2023-10-20T22:53:40.705Z,9.32
2023-10-20T22:57:44.990Z,9.48
2023-10-20T23:01:47.971Z,6.70
2023-10-20T23:05:51.354Z,9.77
2023-10-20T23:09:55.665Z,11.50
2023-10-20T23:13:59.158Z,9.95
2023-10-20T23:18:02.683Z,10.23
2023-10-20T23:22:06.331Z,8.02
2023-10-20T23:26:10.704Z,6.30
2023-10-20T23:30:15.083Z,7.65
2023-10-20T23:34:18.039Z,9.18
2023-10-20T23:38:21.319Z,8.95
2023-10-20T23:42:25.652Z,11.13
2023-10-20T23:46:28.981Z,12.80
2023-10-20T23:50:32.043Z,8.70
2023-10-20T23:54:35.290Z,9.05
2023-10-20T23:58:39.589Z,7.28
